Terminal Aerodrome Forecast
Issued by NWS

Home | Current Version | Previous Version | Text Only | Print | Product List | Glossary On
Versions: 1 2 3 4 5 6 7 8 9 10 11 12 13 14 15 16 17 18 19 20 21 22 23 24 25 26 27 28 29 30 31 32 33 34 35 36 37
000
FTUS43 KGLD 291720
TAFMCK
TAF
KMCK 291720Z 2918/3018 02020G30KT 6SM -RASN BKN030 BKN045
      TEMPO 2920/2924 2SM -SN OVC009
     FM300000 01020G29KT 3SM -SN OVC020
     FM300300 36024G34KT 2SM -SN OVC010
     FM300600 35030G39KT 1 1/2SM -SN BLSN OVC007
     FM301200 35034G44KT 1SM -SN BLSN OVC005=

USA.gov is the U.S. government's official web portal to all federal, state and local government web resources and services.